Sargodha, Pakistan
Current Conditions -  °F | °C
As of 10:25 PM on Friday 21 Nov 2014 (Local Time) from OPLA Reporting Station
Smoke Smoke  
Wind Chill: 63°   Ceiling: Unl
Heat Index: 63°   Visibility: 2.5mi
Dew Point: 48°   Wind: 0mph
Humidity: 59%   Direction: NA
Pressure: 29.97"   Gusts: NA
Location:  32.08°N, 72.67°E
Report Text: OPLA 211725Z 00000KT 4000 FU FEW100 17/09 Q1015
Loading
Personal Weather Stations






























Interactive Weather Map New forecast layout! Learn more

10-Day Weather Forecast

Advertisements
Track Severe Weather on mobile